sensor_id;sensor_type;location;lat;lon;timestamp;temperature;humidity
3912;DHT22;1971;51.778;10.330;2022-10-04T00:01:05;5.50;1.00
3912;DHT22;1971;51.778;10.330;2022-10-04T00:03:40;5.60;1.00
3912;DHT22;1971;51.778;10.330;2022-10-04T00:06:14;5.50;1.00
3912;DHT22;1971;51.778;10.330;2022-10-04T00:08:47;5.50;1.00
3912;DHT22;1971;51.778;10.330;2022-10-04T00:11:25;5.70;1.00
3912;DHT22;1971;51.778;10.330;2022-10-04T00:13:57;5.60;1.00
3912;DHT22;1971;51.778;10.330;2022-10-04T00:16:33;5.50;1.00
3912;DHT22;1971;51.778;10.330;2022-10-04T00:19:22;5.60;1.00
3912;DHT22;1971;51.778;10.330;2022-10-04T00:22:09;5.50;1.00
3912;DHT22;1971;51.778;10.330;2022-10-04T00:28:14;5.40;1.00
3912;DHT22;1971;51.778;10.330;2022-10-04T00:37:14;5.50;1.00
3912;DHT22;1971;51.778;10.330;2022-10-04T00:39:46;5.30;1.00
3912;DHT22;1971;51.778;10.330;2022-10-04T00:42:46;5.10;1.00
3912;DHT22;1971;51.778;10.330;2022-10-04T00:45:26;4.90;1.00
3912;DHT22;1971;51.778;10.330;2022-10-04T00:48:04;4.80;1.00
3912;DHT22;1971;51.778;10.330;2022-10-04T00:50:41;5.00;1.00
3912;DHT22;1971;51.778;10.330;2022-10-04T00:53:20;5.00;1.00
3912;DHT22;1971;51.778;10.330;2022-10-04T00:55:54;5.40;1.00
3912;DHT22;1971;51.778;10.330;2022-10-04T00:58:30;5.20;1.00
3912;DHT22;1971;51.778;10.330;2022-10-04T01:01:02;5.30;1.00
3912;DHT22;1971;51.778;10.330;2022-10-04T01:03:36;5.40;1.00
3912;DHT22;1971;51.778;10.330;2022-10-04T01:06:08;5.10;1.00
3912;DHT22;1971;51.778;10.330;2022-10-04T01:08:46;5.30;1.00
3912;DHT22;1971;51.778;10.330;2022-10-04T01:11:21;5.20;1.00
3912;DHT22;1971;51.778;10.330;2022-10-04T01:13:56;5.20;1.00
3912;DHT22;1971;51.778;10.330;2022-10-04T01:16:28;5.20;1.00
3912;DHT22;1971;51.778;10.330;2022-10-04T01:19:25;5.20;1.00
3912;DHT22;1971;51.778;10.330;2022-10-04T01:22:02;5.30;1.00
3912;DHT22;1971;51.778;10.330;2022-10-04T01:24:41;5.20;1.00
3912;DHT22;1971;51.778;10.330;2022-10-04T01:27:31;5.40;1.00
3912;DHT22;1971;51.778;10.330;2022-10-04T01:30:04;5.30;1.00
3912;DHT22;1971;51.778;10.330;2022-10-04T01:32:36;5.30;1.00
3912;DHT22;1971;51.778;10.330;2022-10-04T01:35:09;5.30;1.00
3912;DHT22;1971;51.778;10.330;2022-10-04T01:37:41;5.40;1.00
3912;DHT22;1971;51.778;10.330;2022-10-04T01:40:13;5.50;1.00
3912;DHT22;1971;51.778;10.330;2022-10-04T01:42:48;5.50;1.00
3912;DHT22;1971;51.778;10.330;2022-10-04T01:45:25;5.40;1.00
3912;DHT22;1971;51.778;10.330;2022-10-04T01:48:00;5.50;1.00
3912;DHT22;1971;51.778;10.330;2022-10-04T01:50:32;5.60;1.00
3912;DHT22;1971;51.778;10.330;2022-10-04T01:53:10;5.50;1.00
3912;DHT22;1971;51.778;10.330;2022-10-04T01:55:48;5.60;1.00
3912;DHT22;1971;51.778;10.330;2022-10-04T01:58:22;5.40;1.00
3912;DHT22;1971;51.778;10.330;2022-10-04T02:00:57;6.00;1.00
3912;DHT22;1971;51.778;10.330;2022-10-04T02:03:32;5.60;1.00
3912;DHT22;1971;51.778;10.330;2022-10-04T02:06:07;5.70;1.00
3912;DHT22;1971;51.778;10.330;2022-10-04T02:08:43;5.60;1.00
3912;DHT22;1971;51.778;10.330;2022-10-04T02:11:19;5.60;1.00
3912;DHT22;1971;51.778;10.330;2022-10-04T02:13:52;5.80;1.00
3912;DHT22;1971;51.778;10.330;2022-10-04T02:16:24;5.80;1.00
3912;DHT22;1971;51.778;10.330;2022-10-04T02:18:55;5.90;1.00
3912;DHT22;1971;51.778;10.330;2022-10-04T02:21:25;6.00;1.00
3912;DHT22;1971;51.778;10.330;2022-10-04T02:23:55;5.80;1.00
3912;DHT22;1971;51.778;10.330;2022-10-04T02:26:28;5.90;1.00
3912;DHT22;1971;51.778;10.330;2022-10-04T02:28:59;5.90;1.00
3912;DHT22;1971;51.778;10.330;2022-10-04T02:31:29;5.80;1.00
3912;DHT22;1971;51.778;10.330;2022-10-04T02:34:13;5.80;1.00
3912;DHT22;1971;51.778;10.330;2022-10-04T02:36:43;5.90;1.00
3912;DHT22;1971;51.778;10.330;2022-10-04T02:39:22;6.00;1.00
3912;DHT22;1971;51.778;10.330;2022-10-04T02:41:59;5.90;1.00
3912;DHT22;1971;51.778;10.330;2022-10-04T02:44:36;5.80;1.00
3912;DHT22;1971;51.778;10.330;2022-10-04T02:47:15;6.10;2.40
3912;DHT22;1971;51.778;10.330;2022-10-04T02:49:49;6.10;8.00
3912;DHT22;1971;51.778;10.330;2022-10-04T02:52:24;6.10;17.50
3912;DHT22;1971;51.778;10.330;2022-10-04T02:54:58;6.30;33.80
3912;DHT22;1971;51.778;10.330;2022-10-04T02:57:33;6.20;26.90
3912;DHT22;1971;51.778;10.330;2022-10-04T03:00:16;6.20;23.80
3912;DHT22;1971;51.778;10.330;2022-10-04T03:03:13;6.20;24.50
3912;DHT22;1971;51.778;10.330;2022-10-04T03:05:52;6.50;28.90
3912;DHT22;1971;51.778;10.330;2022-10-04T03:08:25;6.30;33.60
3912;DHT22;1971;51.778;10.330;2022-10-04T03:10:57;6.30;41.90
3912;DHT22;1971;51.778;10.330;2022-10-04T03:13:31;6.40;48.20
3912;DHT22;1971;51.778;10.330;2022-10-04T03:16:03;6.40;59.80
3912;DHT22;1971;51.778;10.330;2022-10-04T03:18:35;6.60;69.30
3912;DHT22;1971;51.778;10.330;2022-10-04T03:21:07;6.60;59.00
3912;DHT22;1971;51.778;10.330;2022-10-04T03:23:37;6.60;44.50
3912;DHT22;1971;51.778;10.330;2022-10-04T03:26:18;6.60;43.70
3912;DHT22;1971;51.778;10.330;2022-10-04T03:28:54;6.60;38.00
3912;DHT22;1971;51.778;10.330;2022-10-04T03:31:26;6.60;34.00
3912;DHT22;1971;51.778;10.330;2022-10-04T03:33:57;6.50;34.30
3912;DHT22;1971;51.778;10.330;2022-10-04T03:36:27;6.40;40.20
3912;DHT22;1971;51.778;10.330;2022-10-04T03:38:58;6.50;47.20
3912;DHT22;1971;51.778;10.330;2022-10-04T03:41:29;6.60;55.90
3912;DHT22;1971;51.778;10.330;2022-10-04T03:44:03;6.60;61.00
3912;DHT22;1971;51.778;10.330;2022-10-04T03:46:36;6.80;68.00
3912;DHT22;1971;51.778;10.330;2022-10-04T03:49:07;6.80;78.10
3912;DHT22;1971;51.778;10.330;2022-10-04T03:51:43;6.80;70.50
3912;DHT22;1971;51.778;10.330;2022-10-04T03:54:17;6.70;46.00
3912;DHT22;1971;51.778;10.330;2022-10-04T03:56:50;6.60;26.90
3912;DHT22;1971;51.778;10.330;2022-10-04T03:59:25;6.70;26.60
3912;DHT22;1971;51.778;10.330;2022-10-04T04:02:03;6.70;17.00
3912;DHT22;1971;51.778;10.330;2022-10-04T04:04:42;6.70;7.80
3912;DHT22;1971;51.778;10.330;2022-10-04T04:07:19;6.60;1.60
3912;DHT22;1971;51.778;10.330;2022-10-04T04:09:52;6.60;5.60
3912;DHT22;1971;51.778;10.330;2022-10-04T04:12:33;6.50;14.60
3912;DHT22;1971;51.778;10.330;2022-10-04T04:15:09;6.50;24.10
3912;DHT22;1971;51.778;10.330;2022-10-04T04:17:42;6.50;31.60
3912;DHT22;1971;51.778;10.330;2022-10-04T04:20:21;6.40;41.10
3912;DHT22;1971;51.778;10.330;2022-10-04T04:22:59;6.50;49.90
3912;DHT22;1971;51.778;10.330;2022-10-04T04:25:33;6.70;62.20
3912;DHT22;1971;51.778;10.330;2022-10-04T04:28:15;6.60;71.90
3912;DHT22;1971;51.778;10.330;2022-10-04T04:30:57;6.60;79.70
3912;DHT22;1971;51.778;10.330;2022-10-04T04:33:31;6.70;90.30
3912;DHT22;1971;51.778;10.330;2022-10-04T04:36:05;6.80;92.60
3912;DHT22;1971;51.778;10.330;2022-10-04T04:38:35;6.90;91.40
3912;DHT22;1971;51.778;10.330;2022-10-04T04:41:28;6.90;72.70
3912;DHT22;1971;51.778;10.330;2022-10-04T04:44:01;6.60;60.10
3912;DHT22;1971;51.778;10.330;2022-10-04T04:46:37;6.60;62.60
3912;DHT22;1971;51.778;10.330;2022-10-04T04:49:10;6.50;68.70
3912;DHT22;1971;51.778;10.330;2022-10-04T04:51:46;6.50;73.30
3912;DHT22;1971;51.778;10.330;2022-10-04T04:54:21;6.60;81.80
3912;DHT22;1971;51.778;10.330;2022-10-04T04:56:53;6.50;88.50
3912;DHT22;1971;51.778;10.330;2022-10-04T04:59:26;6.60;91.80
3912;DHT22;1971;51.778;10.330;2022-10-04T05:02:00;6.50;94.00
3912;DHT22;1971;51.778;10.330;2022-10-04T05:04:30;6.70;95.40
3912;DHT22;1971;51.778;10.330;2022-10-04T05:07:02;6.70;94.70
3912;DHT22;1971;51.778;10.330;2022-10-04T05:09:34;6.60;94.60
3912;DHT22;1971;51.778;10.330;2022-10-04T05:12:09;7.00;95.90
3912;DHT22;1971;51.778;10.330;2022-10-04T05:14:45;7.00;97.90
3912;DHT22;1971;51.778;10.330;2022-10-04T05:17:23;6.50;99.90
3912;DHT22;1971;51.778;10.330;2022-10-04T05:19:57;6.90;99.90
3912;DHT22;1971;51.778;10.330;2022-10-04T05:22:29;7.00;99.90
3912;DHT22;1971;51.778;10.330;2022-10-04T05:25:03;7.00;99.90
3912;DHT22;1971;51.778;10.330;2022-10-04T05:27:37;7.30;98.00
3912;DHT22;1971;51.778;10.330;2022-10-04T05:30:15;7.50;84.40
3912;DHT22;1971;51.778;10.330;2022-10-04T05:32:59;6.90;62.50
3912;DHT22;1971;51.778;10.330;2022-10-04T05:35:40;6.90;45.20
3912;DHT22;1971;51.778;10.330;2022-10-04T05:38:14;6.90;47.60
3912;DHT22;1971;51.778;10.330;2022-10-04T05:40:54;6.90;60.60
3912;DHT22;1971;51.778;10.330;2022-10-04T05:43:31;6.90;71.50
3912;DHT22;1971;51.778;10.330;2022-10-04T05:46:17;7.50;68.30
3912;DHT22;1971;51.778;10.330;2022-10-04T05:48:55;7.00;42.50
3912;DHT22;1971;51.778;10.330;2022-10-04T05:51:29;6.90;33.90
3912;DHT22;1971;51.778;10.330;2022-10-04T05:54:01;6.80;37.60
3912;DHT22;1971;51.778;10.330;2022-10-04T06:05:53;7.10;27.20
3912;DHT22;1971;51.778;10.330;2022-10-04T06:08:32;6.80;19.10
3912;DHT22;1971;51.778;10.330;2022-10-04T06:11:13;7.20;29.20
3912;DHT22;1971;51.778;10.330;2022-10-04T06:14:09;7.00;33.40
3912;DHT22;1971;51.778;10.330;2022-10-04T06:16:57;6.90;43.50
3912;DHT22;1971;51.778;10.330;2022-10-04T06:22:47;7.20;76.60
3912;DHT22;1971;51.778;10.330;2022-10-04T06:25:23;7.20;71.10
3912;DHT22;1971;51.778;10.330;2022-10-04T06:28:15;7.60;66.90
3912;DHT22;1971;51.778;10.330;2022-10-04T06:31:09;7.30;60.80
3912;DHT22;1971;51.778;10.330;2022-10-04T06:37:08;7.40;75.50
3912;DHT22;1971;51.778;10.330;2022-10-04T06:40:01;7.50;81.80
3912;DHT22;1971;51.778;10.330;2022-10-04T06:42:53;7.50;75.60
3912;DHT22;1971;51.778;10.330;2022-10-04T06:45:39;7.80;75.70
3912;DHT22;1971;51.778;10.330;2022-10-04T06:48:34;7.60;83.50
3912;DHT22;1971;51.778;10.330;2022-10-04T06:51:18;7.90;91.20
3912;DHT22;1971;51.778;10.330;2022-10-04T06:53:59;7.90;97.70
3912;DHT22;1971;51.778;10.330;2022-10-04T06:56:57;8.20;99.90
3912;DHT22;1971;51.778;10.330;2022-10-04T06:59:48;8.10;98.60
3912;DHT22;1971;51.778;10.330;2022-10-04T07:02:24;8.10;97.40
3912;DHT22;1971;51.778;10.330;2022-10-04T07:04:59;8.10;96.80
3912;DHT22;1971;51.778;10.330;2022-10-04T07:07:38;8.20;96.90
3912;DHT22;1971;51.778;10.330;2022-10-04T07:10:23;8.30;99.30
3912;DHT22;1971;51.778;10.330;2022-10-04T07:15:53;8.50;99.90
3912;DHT22;1971;51.778;10.330;2022-10-04T07:18:29;8.60;99.90
3912;DHT22;1971;51.778;10.330;2022-10-04T07:21:05;8.70;99.90
3912;DHT22;1971;51.778;10.330;2022-10-04T07:23:42;9.00;99.90
3912;DHT22;1971;51.778;10.330;2022-10-04T07:26:21;8.90;99.90
3912;DHT22;1971;51.778;10.330;2022-10-04T07:29:04;9.10;99.90
3912;DHT22;1971;51.778;10.330;2022-10-04T07:31:52;9.30;99.90
3912;DHT22;1971;51.778;10.330;2022-10-04T07:34:25;9.30;99.90
3912;DHT22;1971;51.778;10.330;2022-10-04T07:37:05;9.30;92.40
3912;DHT22;1971;51.778;10.330;2022-10-04T07:39:42;9.30;69.10
3912;DHT22;1971;51.778;10.330;2022-10-04T07:42:20;9.60;57.40
3912;DHT22;1971;51.778;10.330;2022-10-04T07:45:07;9.30;47.00
3912;DHT22;1971;51.778;10.330;2022-10-04T07:47:39;9.30;35.80
3912;DHT22;1971;51.778;10.330;2022-10-04T07:50:23;9.40;42.80
3912;DHT22;1971;51.778;10.330;2022-10-04T07:52:57;9.60;41.50
3912;DHT22;1971;51.778;10.330;2022-10-04T07:55:47;9.60;54.50
3912;DHT22;1971;51.778;10.330;2022-10-04T07:58:26;9.80;59.90
3912;DHT22;1971;51.778;10.330;2022-10-04T08:01:03;9.90;42.90
3912;DHT22;1971;51.778;10.330;2022-10-04T08:03:54;9.90;15.90
3912;DHT22;1971;51.778;10.330;2022-10-04T08:06:32;10.30;6.00
3912;DHT22;1971;51.778;10.330;2022-10-04T08:09:25;10.00;1.00
3912;DHT22;1971;51.778;10.330;2022-10-04T08:12:04;10.00;1.00
3912;DHT22;1971;51.778;10.330;2022-10-04T08:15:02;10.20;1.00
3912;DHT22;1971;51.778;10.330;2022-10-04T08:17:49;10.20;1.00
3912;DHT22;1971;51.778;10.330;2022-10-04T08:20:35;10.50;1.00
3912;DHT22;1971;51.778;10.330;2022-10-04T08:23:20;10.70;1.00
3912;DHT22;1971;51.778;10.330;2022-10-04T08:25:58;11.00;1.00
3912;DHT22;1971;51.778;10.330;2022-10-04T08:28:37;11.10;1.00
3912;DHT22;1971;51.778;10.330;2022-10-04T08:31:31;11.20;1.00
3912;DHT22;1971;51.778;10.330;2022-10-04T08:34:27;11.10;1.00
3912;DHT22;1971;51.778;10.330;2022-10-04T08:37:06;11.10;1.00
3912;DHT22;1971;51.778;10.330;2022-10-04T08:39:51;11.00;1.00
3912;DHT22;1971;51.778;10.330;2022-10-04T08:42:51;10.90;1.00
3912;DHT22;1971;51.778;10.330;2022-10-04T08:45:58;11.20;1.00
3912;DHT22;1971;51.778;10.330;2022-10-04T08:55:32;11.50;1.00
3912;DHT22;1971;51.778;10.330;2022-10-04T08:58:13;10.90;1.00
3912;DHT22;1971;51.778;10.330;2022-10-04T09:00:58;10.90;1.00
3912;DHT22;1971;51.778;10.330;2022-10-04T09:04:05;10.90;1.00
3912;DHT22;1971;51.778;10.330;2022-10-04T09:06:51;10.90;1.00
3912;DHT22;1971;51.778;10.330;2022-10-04T09:09:55;11.00;1.00
3912;DHT22;1971;51.778;10.330;2022-10-04T09:12:53;11.40;1.00
3912;DHT22;1971;51.778;10.330;2022-10-04T09:15:42;11.80;1.00
3912;DHT22;1971;51.778;10.330;2022-10-04T09:18:49;12.30;1.00
3912;DHT22;1971;51.778;10.330;2022-10-04T09:21:27;12.00;1.00
3912;DHT22;1971;51.778;10.330;2022-10-04T09:24:36;12.10;1.00
3912;DHT22;1971;51.778;10.330;2022-10-04T09:27:27;12.00;1.00
3912;DHT22;1971;51.778;10.330;2022-10-04T09:30:21;11.80;1.00
3912;DHT22;1971;51.778;10.330;2022-10-04T09:33:17;12.00;1.00
3912;DHT22;1971;51.778;10.330;2022-10-04T09:36:32;12.10;1.00
3912;DHT22;1971;51.778;10.330;2022-10-04T09:39:33;12.30;1.00
3912;DHT22;1971;51.778;10.330;2022-10-04T09:42:31;12.30;1.00
3912;DHT22;1971;51.778;10.330;2022-10-04T09:45:22;12.40;1.00
3912;DHT22;1971;51.778;10.330;2022-10-04T09:57:17;13.10;1.00
3912;DHT22;1971;51.778;10.330;2022-10-04T10:00:15;12.90;1.00
3912;DHT22;1971;51.778;10.330;2022-10-04T10:03:25;13.10;1.00
3912;DHT22;1971;51.778;10.330;2022-10-04T10:06:25;13.10;1.00
3912;DHT22;1971;51.778;10.330;2022-10-04T10:09:20;13.20;1.00
3912;DHT22;1971;51.778;10.330;2022-10-04T10:12:35;12.80;1.00
3912;DHT22;1971;51.778;10.330;2022-10-04T10:15:43;13.10;1.00
3912;DHT22;1971;51.778;10.330;2022-10-04T10:18:31;13.20;1.00
3912;DHT22;1971;51.778;10.330;2022-10-04T10:21:20;13.10;1.00
3912;DHT22;1971;51.778;10.330;2022-10-04T10:24:19;13.30;1.00
3912;DHT22;1971;51.778;10.330;2022-10-04T10:27:01;13.30;1.00
3912;DHT22;1971;51.778;10.330;2022-10-04T11:24:29;13.50;1.00
3912;DHT22;1971;51.778;10.330;2022-10-04T11:27:25;14.00;1.00
3912;DHT22;1971;51.778;10.330;2022-10-04T11:30:07;14.30;1.00
3912;DHT22;1971;51.778;10.330;2022-10-04T11:36:15;13.80;1.00
3912;DHT22;1971;51.778;10.330;2022-10-04T11:38:56;13.30;1.00
3912;DHT22;1971;51.778;10.330;2022-10-04T11:41:41;13.20;1.00
3912;DHT22;1971;51.778;10.330;2022-10-04T11:44:46;13.20;1.00
3912;DHT22;1971;51.778;10.330;2022-10-04T11:47:38;13.80;1.00
3912;DHT22;1971;51.778;10.330;2022-10-04T11:50:22;14.00;1.00
3912;DHT22;1971;51.778;10.330;2022-10-04T11:59:19;14.60;1.00
3912;DHT22;1971;51.778;10.330;2022-10-04T12:05:20;14.10;99.90
3912;DHT22;1971;51.778;10.330;2022-10-04T12:07:58;14.40;99.90
3912;DHT22;1971;51.778;10.330;2022-10-04T12:10:37;14.50;99.90
3912;DHT22;1971;51.778;10.330;2022-10-04T12:13:22;14.70;99.90
3912;DHT22;1971;51.778;10.330;2022-10-04T12:16:25;14.60;99.90
3912;DHT22;1971;51.778;10.330;2022-10-04T12:22:28;14.30;99.90
3912;DHT22;1971;51.778;10.330;2022-10-04T12:25:22;14.50;99.90
3912;DHT22;1971;51.778;10.330;2022-10-04T12:28:25;14.60;99.90
3912;DHT22;1971;51.778;10.330;2022-10-04T12:33:59;14.20;99.90
3912;DHT22;1971;51.778;10.330;2022-10-04T12:36:42;14.30;99.90
3912;DHT22;1971;51.778;10.330;2022-10-04T12:39:38;14.70;99.90
3912;DHT22;1971;51.778;10.330;2022-10-04T12:42:21;14.60;99.90
3912;DHT22;1971;51.778;10.330;2022-10-04T12:48:20;14.60;99.90
3912;DHT22;1971;51.778;10.330;2022-10-04T12:50:59;14.70;99.90
3912;DHT22;1971;51.778;10.330;2022-10-04T12:53:39;15.00;99.90
3912;DHT22;1971;51.778;10.330;2022-10-04T12:56:16;15.20;99.90
3912;DHT22;1971;51.778;10.330;2022-10-04T12:59:05;15.00;99.90
3912;DHT22;1971;51.778;10.330;2022-10-04T13:01:48;14.60;99.90
3912;DHT22;1971;51.778;10.330;2022-10-04T13:04:28;14.50;99.90
3912;DHT22;1971;51.778;10.330;2022-10-04T13:07:15;14.70;99.90
3912;DHT22;1971;51.778;10.330;2022-10-04T13:09:57;14.60;99.90
3912;DHT22;1971;51.778;10.330;2022-10-04T13:15:52;14.60;99.90
3912;DHT22;1971;51.778;10.330;2022-10-04T13:18:51;14.80;99.90
3912;DHT22;1971;51.778;10.330;2022-10-04T13:21:55;14.70;99.90
3912;DHT22;1971;51.778;10.330;2022-10-04T13:24:31;14.90;99.90
3912;DHT22;1971;51.778;10.330;2022-10-04T13:27:28;15.10;99.90
3912;DHT22;1971;51.778;10.330;2022-10-04T13:30:05;15.10;99.90
3912;DHT22;1971;51.778;10.330;2022-10-04T13:32:42;14.70;99.90
3912;DHT22;1971;51.778;10.330;2022-10-04T13:35:19;14.60;99.90
3912;DHT22;1971;51.778;10.330;2022-10-04T13:38:03;14.50;99.90
3912;DHT22;1971;51.778;10.330;2022-10-04T13:40:59;14.60;99.90
3912;DHT22;1971;51.778;10.330;2022-10-04T13:43:54;14.90;99.90
3912;DHT22;1971;51.778;10.330;2022-10-04T13:46:33;14.80;99.90
3912;DHT22;1971;51.778;10.330;2022-10-04T13:49:23;14.70;99.90
3912;DHT22;1971;51.778;10.330;2022-10-04T13:52:06;14.70;99.90
3912;DHT22;1971;51.778;10.330;2022-10-04T13:54:57;14.90;99.90
3912;DHT22;1971;51.778;10.330;2022-10-04T13:57:45;15.00;99.90
3912;DHT22;1971;51.778;10.330;2022-10-04T14:00:41;14.80;99.90
3912;DHT22;1971;51.778;10.330;2022-10-04T14:03:28;14.80;99.90
3912;DHT22;1971;51.778;10.330;2022-10-04T14:06:20;14.70;99.90
3912;DHT22;1971;51.778;10.330;2022-10-04T14:09:22;14.80;99.90
3912;DHT22;1971;51.778;10.330;2022-10-04T14:12:22;14.90;99.90
3912;DHT22;1971;51.778;10.330;2022-10-04T14:21:18;14.60;99.90
3912;DHT22;1971;51.778;10.330;2022-10-04T14:27:38;15.00;99.90
3912;DHT22;1971;51.778;10.330;2022-10-04T14:30:21;14.90;99.90
3912;DHT22;1971;51.778;10.330;2022-10-04T14:33:20;15.00;99.90
3912;DHT22;1971;51.778;10.330;2022-10-04T14:39:06;14.90;99.90
3912;DHT22;1971;51.778;10.330;2022-10-04T14:42:03;14.80;99.90
3912;DHT22;1971;51.778;10.330;2022-10-04T14:45:05;14.60;99.90
3912;DHT22;1971;51.778;10.330;2022-10-04T14:50:44;14.70;99.90
3912;DHT22;1971;51.778;10.330;2022-10-04T14:53:24;14.60;99.90
3912;DHT22;1971;51.778;10.330;2022-10-04T14:56:18;14.60;99.90
3912;DHT22;1971;51.778;10.330;2022-10-04T14:59:01;14.70;99.90
3912;DHT22;1971;51.778;10.330;2022-10-04T15:01:37;14.70;99.90
3912;DHT22;1971;51.778;10.330;2022-10-04T15:04:26;14.80;99.90
3912;DHT22;1971;51.778;10.330;2022-10-04T15:07:01;14.80;99.90
3912;DHT22;1971;51.778;10.330;2022-10-04T15:09:54;14.80;99.90
3912;DHT22;1971;51.778;10.330;2022-10-04T15:12:44;14.60;99.90
3912;DHT22;1971;51.778;10.330;2022-10-04T15:15:56;14.80;99.90
3912;DHT22;1971;51.778;10.330;2022-10-04T15:18:44;14.80;99.90
3912;DHT22;1971;51.778;10.330;2022-10-04T15:21:34;14.70;99.90
3912;DHT22;1971;51.778;10.330;2022-10-04T15:24:22;14.60;99.90
3912;DHT22;1971;51.778;10.330;2022-10-04T15:29:56;14.60;99.90
3912;DHT22;1971;51.778;10.330;2022-10-04T15:32:35;14.50;99.90
3912;DHT22;1971;51.778;10.330;2022-10-04T15:35:19;14.40;99.90
3912;DHT22;1971;51.778;10.330;2022-10-04T15:37:57;14.30;99.90
3912;DHT22;1971;51.778;10.330;2022-10-04T15:40:47;14.20;99.90
3912;DHT22;1971;51.778;10.330;2022-10-04T15:43:25;13.80;99.90
3912;DHT22;1971;51.778;10.330;2022-10-04T15:55:19;13.30;99.90
3912;DHT22;1971;51.778;10.330;2022-10-04T16:04:08;13.10;99.90
3912;DHT22;1971;51.778;10.330;2022-10-04T16:06:45;13.00;99.90
3912;DHT22;1971;51.778;10.330;2022-10-04T16:09:23;13.00;99.90
3912;DHT22;1971;51.778;10.330;2022-10-04T16:12:16;12.80;99.90
3912;DHT22;1971;51.778;10.330;2022-10-04T16:15:10;12.80;99.90
3912;DHT22;1971;51.778;10.330;2022-10-04T16:18:00;12.60;99.90
3912;DHT22;1971;51.778;10.330;2022-10-04T16:20:47;12.50;99.90
3912;DHT22;1971;51.778;10.330;2022-10-04T16:23:31;12.50;99.90
3912;DHT22;1971;51.778;10.330;2022-10-04T16:26:03;12.60;99.90
3912;DHT22;1971;51.778;10.330;2022-10-04T16:29:02;12.50;99.90
3912;DHT22;1971;51.778;10.330;2022-10-04T16:31:43;12.50;99.90
3912;DHT22;1971;51.778;10.330;2022-10-04T16:34:33;12.50;99.90
3912;DHT22;1971;51.778;10.330;2022-10-04T16:37:30;12.50;99.90
3912;DHT22;1971;51.778;10.330;2022-10-04T16:40:14;12.40;99.90
3912;DHT22;1971;51.778;10.330;2022-10-04T16:42:52;12.30;99.90
3912;DHT22;1971;51.778;10.330;2022-10-04T16:45:42;12.20;99.90
3912;DHT22;1971;51.778;10.330;2022-10-04T16:48:26;12.30;99.90
3912;DHT22;1971;51.778;10.330;2022-10-04T16:54:47;11.90;99.90
3912;DHT22;1971;51.778;10.330;2022-10-04T16:57:24;11.90;99.90
3912;DHT22;1971;51.778;10.330;2022-10-04T16:59:56;11.80;99.90
3912;DHT22;1971;51.778;10.330;2022-10-04T17:05:44;11.90;99.90
3912;DHT22;1971;51.778;10.330;2022-10-04T17:08:46;11.90;99.90
3912;DHT22;1971;51.778;10.330;2022-10-04T17:11:45;11.90;99.90
3912;DHT22;1971;51.778;10.330;2022-10-04T17:14:34;11.90;99.90
3912;DHT22;1971;51.778;10.330;2022-10-04T17:17:22;11.90;99.90
3912;DHT22;1971;51.778;10.330;2022-10-04T17:20:02;11.90;99.90
3912;DHT22;1971;51.778;10.330;2022-10-04T17:22:45;11.90;99.90
3912;DHT22;1971;51.778;10.330;2022-10-04T17:25:25;11.90;99.90
3912;DHT22;1971;51.778;10.330;2022-10-04T17:28:12;11.80;99.90
3912;DHT22;1971;51.778;10.330;2022-10-04T17:30:51;11.90;99.90
3912;DHT22;1971;51.778;10.330;2022-10-04T17:33:36;11.90;99.90
3912;DHT22;1971;51.778;10.330;2022-10-04T17:36:27;11.90;99.90
3912;DHT22;1971;51.778;10.330;2022-10-04T17:39:13;11.90;99.90
3912;DHT22;1971;51.778;10.330;2022-10-04T17:41:56;11.90;99.90
3912;DHT22;1971;51.778;10.330;2022-10-04T17:45:05;11.70;99.90
3912;DHT22;1971;51.778;10.330;2022-10-04T17:47:46;11.60;99.90
3912;DHT22;1971;51.778;10.330;2022-10-04T17:50:38;11.60;99.90
3912;DHT22;1971;51.778;10.330;2022-10-04T17:53:28;11.60;99.90
3912;DHT22;1971;51.778;10.330;2022-10-04T17:56:30;11.70;99.90
3912;DHT22;1971;51.778;10.330;2022-10-04T17:59:06;11.60;99.90
3912;DHT22;1971;51.778;10.330;2022-10-04T18:01:41;11.50;99.90
3912;DHT22;1971;51.778;10.330;2022-10-04T18:04:18;11.60;99.90
3912;DHT22;1971;51.778;10.330;2022-10-04T18:06:53;11.80;99.90
3912;DHT22;1971;51.778;10.330;2022-10-04T18:09:34;11.50;99.90
3912;DHT22;1971;51.778;10.330;2022-10-04T18:12:13;11.60;99.90
3912;DHT22;1971;51.778;10.330;2022-10-04T18:14:58;11.70;99.90
3912;DHT22;1971;51.778;10.330;2022-10-04T18:17:33;11.60;99.90
3912;DHT22;1971;51.778;10.330;2022-10-04T18:20:23;11.70;99.90
3912;DHT22;1971;51.778;10.330;2022-10-04T18:22:58;12.10;99.90
3912;DHT22;1971;51.778;10.330;2022-10-04T18:25:31;11.70;99.90
3912;DHT22;1971;51.778;10.330;2022-10-04T18:28:10;11.70;99.90
3912;DHT22;1971;51.778;10.330;2022-10-04T18:30:53;11.70;99.90
3912;DHT22;1971;51.778;10.330;2022-10-04T18:33:30;11.60;99.90
3912;DHT22;1971;51.778;10.330;2022-10-04T18:36:16;11.60;99.90
3912;DHT22;1971;51.778;10.330;2022-10-04T18:39:17;11.50;99.90
3912;DHT22;1971;51.778;10.330;2022-10-04T18:42:00;11.50;99.90
3912;DHT22;1971;51.778;10.330;2022-10-04T18:44:45;11.70;99.90
3912;DHT22;1971;51.778;10.330;2022-10-04T18:47:29;11.70;99.90
3912;DHT22;1971;51.778;10.330;2022-10-04T18:50:13;11.70;99.90
3912;DHT22;1971;51.778;10.330;2022-10-04T18:52:57;11.70;99.90
3912;DHT22;1971;51.778;10.330;2022-10-04T18:55:38;11.60;99.90
3912;DHT22;1971;51.778;10.330;2022-10-04T18:58:23;11.70;99.90
3912;DHT22;1971;51.778;10.330;2022-10-04T19:01:22;11.60;99.90
3912;DHT22;1971;51.778;10.330;2022-10-04T19:04:10;11.50;99.90
3912;DHT22;1971;51.778;10.330;2022-10-04T19:06:44;11.50;99.90
3912;DHT22;1971;51.778;10.330;2022-10-04T19:09:22;11.60;99.90
3912;DHT22;1971;51.778;10.330;2022-10-04T19:12:01;11.60;99.90
3912;DHT22;1971;51.778;10.330;2022-10-04T19:14:41;11.40;99.90
3912;DHT22;1971;51.778;10.330;2022-10-04T19:17:21;11.30;99.90
3912;DHT22;1971;51.778;10.330;2022-10-04T19:19:58;11.20;99.90
3912;DHT22;1971;51.778;10.330;2022-10-04T19:22:41;11.00;99.90
3912;DHT22;1971;51.778;10.330;2022-10-04T19:25:31;11.30;99.90
3912;DHT22;1971;51.778;10.330;2022-10-04T19:28:07;11.30;99.90
3912;DHT22;1971;51.778;10.330;2022-10-04T19:31:01;11.40;99.90
3912;DHT22;1971;51.778;10.330;2022-10-04T19:33:40;11.70;99.90
3912;DHT22;1971;51.778;10.330;2022-10-04T19:36:26;11.30;99.90
3912;DHT22;1971;51.778;10.330;2022-10-04T19:39:07;11.50;99.90
3912;DHT22;1971;51.778;10.330;2022-10-04T19:41:50;11.50;99.90
3912;DHT22;1971;51.778;10.330;2022-10-04T19:44:40;11.50;99.90
3912;DHT22;1971;51.778;10.330;2022-10-04T19:47:29;11.50;99.90
3912;DHT22;1971;51.778;10.330;2022-10-04T19:50:09;11.70;99.90
3912;DHT22;1971;51.778;10.330;2022-10-04T19:52:49;11.70;99.90
3912;DHT22;1971;51.778;10.330;2022-10-04T19:55:23;11.40;99.90
3912;DHT22;1971;51.778;10.330;2022-10-04T19:58:05;11.30;99.90
3912;DHT22;1971;51.778;10.330;2022-10-04T20:00:41;11.20;99.90
3912;DHT22;1971;51.778;10.330;2022-10-04T20:03:15;11.20;99.90
3912;DHT22;1971;51.778;10.330;2022-10-04T20:05:47;11.20;99.90
3912;DHT22;1971;51.778;10.330;2022-10-04T20:11:46;11.20;99.90
3912;DHT22;1971;51.778;10.330;2022-10-04T20:17:31;11.10;99.90
3912;DHT22;1971;51.778;10.330;2022-10-04T20:20:04;11.10;99.90
3912;DHT22;1971;51.778;10.330;2022-10-04T20:22:53;11.10;99.90
3912;DHT22;1971;51.778;10.330;2022-10-04T20:25:58;11.00;99.90
3912;DHT22;1971;51.778;10.330;2022-10-04T20:28:42;10.90;99.90